Time;durP1;ratioP1;P1;durP2;ratioP2;P2;SDS_P1;SDS_P2;PMS_P1;PMS_P2;Temp;Humidity;BMP_temperature;BMP_pressure;BME280_temperature;BME280_humidity;BME280_pressure;Samples;Min_cycle;Max_cycle;Signal;HPM_P1;HPM_P2
2022/05/11 00:01:25;;;;;;;10.52;5.18;;;;;;;16.55;59.46;101238.09;5043847;28;20655;-71
2022/05/11 00:03:51;;;;;;;10.07;5.10;;;;;;;16.57;59.12;101227.59;5046450;28;20097;-71
2022/05/11 00:06:16;;;;;;;13.60;5.75;;;;;;;16.55;59.53;101232.53;5044493;28;20033;-72
2022/05/11 00:08:41;;;;;;;10.33;4.80;;;;;;;16.52;60.58;101227.50;5044682;28;20037;-71
2022/05/11 00:11:06;;;;;;;13.35;5.28;;;;;;;16.51;61.69;101231.38;5041214;28;20385;-72
2022/05/11 00:13:33;;;;;;;12.48;5.50;;;;;;;16.48;60.87;101228.31;5045277;28;20122;-71
2022/05/11 00:15:58;;;;;;;10.68;5.75;;;;;;;16.45;61.38;101213.03;5045440;28;20442;-71
2022/05/11 00:18:23;;;;;;;12.00;5.18;;;;;;;16.45;62.68;101217.75;5045062;28;20021;-71
2022/05/11 00:20:48;;;;;;;12.50;6.13;;;;;;;16.40;62.96;101212.16;5040959;28;20044;-71
2022/05/11 00:23:14;;;;;;;11.40;6.13;;;;;;;16.37;62.75;101216.25;5044764;28;20078;-71
2022/05/11 00:25:39;;;;;;;13.02;6.20;;;;;;;16.37;61.58;101204.34;5044777;28;20368;-69
2022/05/11 00:28:05;;;;;;;11.55;5.93;;;;;;;16.34;61.88;101208.47;5044724;28;20037;-71
2022/05/11 00:30:31;;;;;;;11.30;5.30;;;;;;;16.35;61.62;101201.84;5043705;28;20037;-72
2022/05/11 00:33:00;;;;;;;11.55;5.60;;;;;;;16.33;62.02;101198.50;5044871;28;20123;-71
2022/05/11 00:35:28;;;;;;;11.93;6.40;;;;;;;16.31;61.83;101206.22;5044684;28;20613;-71
2022/05/11 00:37:53;;;;;;;13.70;5.72;;;;;;;16.31;61.53;101207.06;5045563;28;20028;-72
2022/05/11 00:40:20;;;;;;;11.18;5.82;;;;;;;16.30;61.70;101208.16;5043268;28;20045;-71
2022/05/11 00:42:46;;;;;;;14.45;6.20;;;;;;;16.32;61.49;101191.25;5043714;28;20040;-71
2022/05/11 00:45:11;;;;;;;12.57;6.07;;;;;;;16.32;62.07;101194.03;5044962;28;20380;-71
2022/05/11 00:47:41;;;;;;;9.85;5.97;;;;;;;16.32;60.55;101185.72;5044842;28;20037;-71
2022/05/11 00:50:14;;;;;;;11.60;6.43;;;;;;;16.34;60.58;101181.59;5044201;28;20056;-71
2022/05/11 00:52:44;;;;;;;11.52;5.55;;;;;;;16.32;60.95;101174.63;5045263;28;20033;-72
2022/05/11 00:55:28;;;;;;;10.60;6.05;;;;;;;16.34;60.71;101176.06;5043281;28;20032;-72
2022/05/11 00:58:06;;;;;;;14.23;5.90;;;;;;;16.30;61.38;101177.66;5042439;28;20043;-71
2022/05/11 01:00:32;;;;;;;14.20;5.65;;;;;;;16.34;59.71;101178.00;5044163;28;20037;-72
2022/05/11 01:03:01;;;;;;;13.32;5.28;;;;;;;16.35;60.32;101180.50;5044798;28;20029;-71
2022/05/11 01:05:26;;;;;;;11.57;5.05;;;;;;;16.34;59.59;101183.53;5040893;28;20550;-72
2022/05/11 01:07:54;;;;;;;10.83;5.30;;;;;;;16.33;59.03;101177.16;5044826;28;20104;-71
2022/05/11 01:10:20;;;;;;;13.15;5.05;;;;;;;16.34;58.92;101178.00;5043173;28;20307;-71
2022/05/11 01:12:49;;;;;;;11.70;4.97;;;;;;;16.33;59.01;101170.78;5043485;28;20507;-71
2022/05/11 01:15:17;;;;;;;14.65;5.15;;;;;;;16.32;58.89;101164.41;5044437;28;20039;-72
2022/05/11 01:17:43;;;;;;;10.85;4.93;;;;;;;16.32;58.85;101161.63;5044157;28;20021;-72
2022/05/11 01:20:17;;;;;;;9.68;5.18;;;;;;;16.28;59.26;101163.25;5044357;28;21173;-71
2022/05/11 01:22:50;;;;;;;12.05;5.35;;;;;;;16.27;59.75;101158.81;5043032;28;20029;-70
2022/05/11 01:25:16;;;;;;;12.00;5.45;;;;;;;16.25;60.67;101158.22;5041527;28;20151;-72
2022/05/11 01:27:44;;;;;;;9.55;5.30;;;;;;;16.23;59.50;101160.41;5039779;28;20025;-71
2022/05/11 01:30:21;;;;;;;13.65;5.18;;;;;;;16.26;59.92;101161.81;5043289;28;20115;-68
2022/05/11 01:32:55;;;;;;;10.20;5.03;;;;;;;16.23;60.28;101165.13;5043319;28;20037;-71
2022/05/11 01:35:38;;;;;;;11.88;5.47;;;;;;;16.23;60.31;101156.81;5043465;28;20017;-71
2022/05/11 01:38:21;;;;;;;10.25;4.95;;;;;;;16.21;61.03;101156.22;5042776;28;20074;-71
2022/05/11 01:40:47;;;;;;;11.50;5.97;;;;;;;16.19;61.17;101158.44;5043370;28;20086;-71
2022/05/11 01:43:22;;;;;;;10.98;5.82;;;;;;;16.17;61.42;101149.50;5043677;28;20028;-71
2022/05/11 01:45:47;;;;;;;9.52;5.10;;;;;;;16.11;62.03;101145.84;5043758;28;20032;-71
2022/05/11 01:48:13;;;;;;;12.35;5.95;;;;;;;16.11;61.49;101147.78;5042006;28;20480;-71
2022/05/11 01:50:38;;;;;;;12.63;5.80;;;;;;;16.06;62.08;101149.41;5044094;28;20025;-70
2022/05/11 01:53:05;;;;;;;11.90;5.00;;;;;;;16.06;62.47;101149.41;5040958;28;20060;-71
2022/05/11 01:55:32;;;;;;;11.02;5.68;;;;;;;16.06;62.68;101145.81;5043216;28;20089;-71
2022/05/11 01:57:57;;;;;;;11.77;5.43;;;;;;;16.04;63.07;101142.47;5043074;28;20031;-71
2022/05/11 02:00:23;;;;;;;11.43;5.90;;;;;;;16.04;62.38;101139.69;5042082;28;20119;-71
2022/05/11 02:02:48;;;;;;;12.15;5.90;;;;;;;16.03;63.04;101154.66;5042320;28;20040;-71
2022/05/11 02:07:57;;;;;;;11.82;5.82;;;;;;;15.98;63.18;101138.81;5044116;28;20063;-71
2022/05/11 02:10:25;;;;;;;11.93;5.43;;;;;;;15.94;62.55;101137.63;5042295;28;20041;-71
2022/05/11 02:12:51;;;;;;;;;;;;;;;16.06;61.49;101135.56;5041545;28;20443;-71
2022/05/11 02:15:19;;;;;;;10.35;5.88;;;;;;;15.94;61.95;101132.09;5042563;28;19911;-71
2022/05/11 02:17:45;;;;;;;11.23;5.88;;;;;;;15.93;62.02;101144.28;5043894;28;20505;-72
2022/05/11 02:20:13;;;;;;;13.43;6.05;;;;;;;15.93;62.47;101132.38;5042382;28;20855;-71
2022/05/11 02:22:40;;;;;;;;;;;;;;;16.02;61.17;101137.19;5040678;28;20028;-71
2022/05/11 02:25:06;;;;;;;13.10;6.65;;;;;;;15.93;62.09;101129.59;5044356;28;19959;-71
2022/05/11 02:27:32;;;;;;;14.55;5.90;;;;;;;15.91;62.27;101129.84;5041040;28;20036;-71
2022/05/11 02:29:57;;;;;;;11.68;6.20;;;;;;;15.87;63.39;101123.16;5041157;28;20447;-71
2022/05/11 02:32:23;;;;;;;10.80;6.47;;;;;;;15.89;62.08;101129.28;5040412;28;20163;-71
2022/05/11 02:37:33;;;;;;;12.65;6.13;;;;;;;15.87;62.83;101125.94;5042805;28;20048;-71
2022/05/11 02:39:59;;;;;;;11.10;6.20;;;;;;;15.87;62.06;101133.41;5043250;28;20029;-71
2022/05/11 02:42:24;;;;;;;15.82;6.50;;;;;;;15.86;62.72;101135.31;5040687;28;20508;-71
2022/05/11 02:44:49;;;;;;;14.70;7.13;;;;;;;15.87;62.56;101134.25;5043199;28;20471;-71
2022/05/11 02:47:15;;;;;;;11.17;5.90;;;;;;;15.86;62.51;101138.09;5041757;28;20044;-72
2022/05/11 02:49:40;;;;;;;12.23;5.70;;;;;;;15.87;62.57;101134.25;5043248;28;20276;-72
2022/05/11 02:52:05;;;;;;;12.30;6.10;;;;;;;15.85;63.76;101125.34;5041063;28;20114;-71
2022/05/11 02:54:31;;;;;;;12.73;5.95;;;;;;;15.86;62.74;101131.72;5033723;22;20073;-71
2022/05/11 02:56:56;;;;;;;14.23;6.23;;;;;;;15.84;62.72;101123.66;5023868;28;20391;-72
2022/05/11 02:59:21;;;;;;;10.55;5.72;;;;;;;15.86;62.58;101120.63;5020492;28;20381;-71
2022/05/11 03:01:49;;;;;;;11.95;6.35;;;;;;;15.85;63.23;101130.03;5022046;28;20025;-72
2022/05/11 03:04:15;;;;;;;10.57;5.43;;;;;;;15.85;62.80;101119.81;5023009;28;20060;-71
2022/05/11 03:06:42;;;;;;;9.68;5.50;;;;;;;15.85;62.80;101125.34;5020969;28;20061;-72
2022/05/11 03:09:07;;;;;;;10.32;5.68;;;;;;;15.85;62.68;101121.75;5022294;28;20040;-71
2022/05/11 03:11:32;;;;;;;12.10;5.43;;;;;;;15.83;63.37;101114.53;5021398;28;20026;-71
2022/05/11 03:13:58;;;;;;;13.30;5.80;;;;;;;15.81;63.16;101104.78;5022309;28;20033;-71
2022/05/11 03:16:23;;;;;;;9.70;5.80;;;;;;;15.81;63.05;101096.47;5021625;28;20036;-71
2022/05/11 03:18:48;;;;;;;12.63;5.68;;;;;;;15.82;63.39;101099.00;5023531;28;20052;-71
2022/05/11 03:21:14;;;;;;;12.50;5.50;;;;;;;15.80;62.97;101100.34;5020811;28;20472;-71
2022/05/11 03:23:39;;;;;;;9.90;5.88;;;;;;;15.79;63.57;101095.91;5022067;28;20033;-70
2022/05/11 03:26:04;;;;;;;11.40;5.50;;;;;;;15.79;62.99;101091.22;5022658;28;20034;-71
2022/05/11 03:28:30;;;;;;;11.77;5.90;;;;;;;15.79;62.62;101090.38;5022855;28;20029;-71
2022/05/11 03:30:55;;;;;;;12.88;5.72;;;;;;;15.80;62.90;101092.03;5024726;28;20029;-71
2022/05/11 03:36:04;;;;;;;14.20;5.85;;;;;;;15.73;64.16;101095.03;5024999;28;20057;-71
2022/05/11 03:38:30;;;;;;;9.65;5.43;;;;;;;15.71;64.03;101088.06;5024614;28;20041;-71
2022/05/11 03:40:55;;;;;;;10.70;6.13;;;;;;;15.72;63.22;101087.00;5025488;28;20518;-71
2022/05/11 03:43:20;;;;;;;10.32;5.65;;;;;;;15.72;63.26;101087.00;5026012;28;20109;-71
2022/05/11 03:45:46;;;;;;;10.25;5.53;;;;;;;15.72;64.16;101092.53;5025112;28;20053;-71
2022/05/11 03:48:11;;;;;;;11.77;5.55;;;;;;;15.71;63.47;101079.75;5026466;28;20471;-72
2022/05/11 03:50:38;;;;;;;11.00;5.50;;;;;;;15.69;63.14;101076.41;5025519;28;20030;-71
2022/05/11 03:53:03;;;;;;;10.35;5.38;;;;;;;15.70;63.55;101075.31;5025572;28;20045;-71
2022/05/11 03:55:28;;;;;;;12.00;5.93;;;;;;;15.68;63.14;101074.75;5026378;28;20674;-71
2022/05/11 03:57:54;;;;;;;9.45;5.30;;;;;;;15.69;63.43;101079.19;5026225;28;20091;-71
2022/05/11 04:00:22;;;;;;;9.63;5.28;;;;;;;15.67;63.67;101073.09;5023515;28;20493;-71
2022/05/11 04:02:51;;;;;;;;;;;;;;;15.75;62.32;101073.44;5025936;28;20017;-71
2022/05/11 04:05:18;;;;;;;11.00;6.45;;;;;;;15.66;63.66;101082.47;5026182;28;20008;-70
2022/05/11 04:07:43;;;;;;;11.02;5.97;;;;;;;15.65;63.95;101083.56;5025616;28;20033;-71
2022/05/11 04:10:11;;;;;;;10.35;6.30;;;;;;;15.64;63.55;101081.91;5025326;28;20091;-71
2022/05/11 04:12:37;;;;;;;8.43;5.72;;;;;;;15.60;64.04;101084.31;5025646;28;20152;-71
2022/05/11 04:15:04;;;;;;;12.38;5.95;;;;;;;15.57;64.28;101071.81;5033401;28;20487;-71
2022/05/11 04:17:29;;;;;;;11.25;5.25;;;;;;;15.59;64.03;101068.78;5024714;28;20315;-71
2022/05/11 04:19:55;;;;;;;12.23;5.43;;;;;;;15.59;64.49;101066.03;5025751;28;20116;-71
2022/05/11 04:22:21;;;;;;;10.05;5.10;;;;;;;15.58;64.09;101069.91;5024128;28;20030;-71
2022/05/11 04:24:46;;;;;;;11.32;5.80;;;;;;;15.60;64.41;101064.09;5025914;28;20029;-72
2022/05/11 04:27:12;;;;;;;15.10;6.25;;;;;;;15.60;64.37;101058.56;5022847;28;20492;-72
2022/05/11 04:29:38;;;;;;;13.30;5.00;;;;;;;15.60;64.36;101073.22;5026370;28;20040;-71
2022/05/11 04:32:04;;;;;;;14.43;5.97;;;;;;;15.62;65.18;101064.69;5023609;28;20116;-71
2022/05/11 04:34:29;;;;;;;12.52;5.82;;;;;;;15.63;65.10;101066.34;5025169;28;20170;-71
2022/05/11 04:36:54;;;;;;;13.23;6.73;;;;;;;15.66;64.10;101065.84;5025035;28;20028;-71
2022/05/11 04:39:20;;;;;;;13.90;5.65;;;;;;;15.69;63.84;101059.81;5024661;28;20296;-72
2022/05/11 04:41:45;;;;;;;15.43;6.05;;;;;;;15.70;64.20;101061.47;5024553;28;20400;-71
2022/05/11 04:44:11;;;;;;;12.80;6.28;;;;;;;15.73;63.87;101063.72;5025089;28;20455;-71
2022/05/11 04:46:37;;;;;;;14.20;5.65;;;;;;;15.72;64.13;101065.66;5023109;28;20044;-72
2022/05/11 04:49:19;;;;;;;12.25;5.85;;;;;;;15.73;64.28;101066.50;5025512;28;20033;-71
2022/05/11 04:51:51;;;;;;;11.27;5.38;;;;;;;15.75;64.38;101072.59;5021290;28;20097;-72
2022/05/11 04:54:17;;;;;;;12.57;6.03;;;;;;;15.77;64.41;101067.66;5017418;28;20136;-71
2022/05/11 04:56:43;;;;;;;9.85;5.90;;;;;;;15.77;64.40;101064.88;5025363;28;20032;-71
2022/05/11 04:59:09;;;;;;;10.90;5.78;;;;;;;15.81;63.89;101069.66;5023730;28;20029;-72
2022/05/11 05:01:35;;;;;;;10.15;5.63;;;;;;;15.85;64.10;101071.88;5020095;28;20108;-71
2022/05/11 05:04:01;;;;;;;9.98;5.82;;;;;;;15.85;64.07;101071.88;5023926;28;20044;-71
2022/05/11 05:06:32;;;;;;;12.48;5.85;;;;;;;15.85;64.12;101060.81;5024305;28;20108;-71
2022/05/11 05:08:59;;;;;;;10.40;6.00;;;;;;;15.89;64.13;101065.56;5022514;28;20025;-72
2022/05/11 05:11:24;;;;;;;9.05;5.60;;;;;;;15.92;64.08;101070.59;5020970;28;20437;-72
2022/05/11 05:13:50;;;;;;;11.13;6.45;;;;;;;15.95;63.84;101070.06;5024851;28;20060;-71
2022/05/11 05:16:15;;;;;;;11.65;6.50;;;;;;;15.95;63.92;101072.00;5022369;28;20099;-72
2022/05/11 05:18:41;;;;;;;11.07;5.95;;;;;;;15.95;63.97;101069.22;5023699;28;20029;-71
2022/05/11 05:21:06;;;;;;;12.90;6.20;;;;;;;15.91;64.01;101079.97;5024059;28;20030;-72
2022/05/11 05:23:31;;;;;;;11.07;6.13;;;;;;;15.87;64.60;101070.53;5023193;28;20025;-72
2022/05/11 05:25:56;;;;;;;11.15;6.18;;;;;;;15.88;64.75;101074.16;5024343;28;20096;-72
2022/05/11 05:31:09;;;;;;;14.43;6.43;;;;;;;15.87;64.25;101078.84;5022474;28;20087;-71
2022/05/11 05:33:36;;;;;;;12.50;6.32;;;;;;;15.85;64.47;101092.09;5023227;28;20029;-72
2022/05/11 05:36:04;;;;;;;10.57;6.10;;;;;;;15.83;64.32;101088.78;5022969;28;20040;-72
2022/05/11 05:38:29;;;;;;;13.38;6.72;;;;;;;15.82;65.25;101092.63;5023835;28;20128;-72
2022/05/11 05:40:55;;;;;;;11.45;6.38;;;;;;;15.84;64.27;101090.44;5023927;28;20399;-72
2022/05/11 05:43:22;;;;;;;11.40;6.88;;;;;;;15.77;64.79;101090.66;5023391;28;20124;-71
2022/05/11 05:45:52;;;;;;;10.85;6.47;;;;;;;15.77;64.61;101090.66;5021657;28;20039;-72
2022/05/11 05:48:19;;;;;;;11.80;6.30;;;;;;;15.78;65.19;101086.78;5023065;28;20034;-73
2022/05/11 05:50:44;;;;;;;12.05;6.72;;;;;;;15.81;64.74;101093.72;5022751;28;20033;-73
2022/05/11 05:53:10;;;;;;;11.07;6.38;;;;;;;15.81;64.37;101090.94;5019194;28;20045;-71
2022/05/11 05:55:35;;;;;;;12.50;6.82;;;;;;;15.83;64.65;101097.09;5023612;28;20037;-72
2022/05/11 05:58:01;;;;;;;14.98;7.25;;;;;;;15.87;63.99;101092.69;5024730;28;20022;-72
2022/05/11 06:00:26;;;;;;;12.57;7.57;;;;;;;15.90;64.58;101094.94;5023224;28;20333;-72
2022/05/11 06:02:54;;;;;;;15.02;7.07;;;;;;;15.92;64.50;101095.53;5023764;28;20029;-72
2022/05/11 06:05:19;;;;;;;15.15;6.53;;;;;;;15.99;64.06;101098.91;5022759;28;20018;-72
2022/05/11 06:07:45;;;;;;;12.88;6.47;;;;;;;16.01;63.81;101099.47;5022100;28;20059;-72
2022/05/11 06:10:10;;;;;;;12.35;6.13;;;;;;;16.00;62.54;101095.03;5023087;28;20029;-72
2022/05/11 06:12:36;;;;;;;10.20;6.28;;;;;;;16.00;62.56;101086.72;5022780;28;20510;-72
2022/05/11 06:15:02;;;;;;;11.35;6.85;;;;;;;16.03;62.51;101082.63;5023201;28;20024;-72
2022/05/11 06:17:28;;;;;;;12.55;5.85;;;;;;;16.06;62.67;101087.63;5023053;28;20452;-72
2022/05/11 06:19:54;;;;;;;12.98;5.80;;;;;;;16.11;62.80;101084.06;5023217;28;20096;-72
2022/05/11 06:22:21;;;;;;;13.20;5.93;;;;;;;16.16;60.90;101087.72;5022655;28;20555;-72
2022/05/11 06:24:46;;;;;;;11.65;4.75;;;;;;;16.14;60.29;101084.38;5023121;28;20057;-72
2022/05/11 06:27:18;;;;;;;13.20;5.70;;;;;;;16.16;60.96;101075.81;5021881;28;20108;-71
2022/05/11 06:29:50;;;;;;;12.55;4.80;;;;;;;16.26;61.09;101078.66;5023270;28;20033;-72
2022/05/11 06:32:18;;;;;;;15.32;5.10;;;;;;;16.37;60.30;101083.19;5021499;28;20022;-72
2022/05/11 06:34:44;;;;;;;11.75;5.00;;;;;;;16.46;59.22;101076.06;5023293;28;20030;-71
2022/05/11 06:37:09;;;;;;;12.20;4.82;;;;;;;16.56;59.11;101073.38;5022579;28;20484;-67
2022/05/11 06:39:35;;;;;;;10.32;4.13;;;;;;;16.68;59.59;101073.22;5022861;28;20079;-72
2022/05/11 06:42:01;;;;;;;13.07;4.80;;;;;;;16.83;57.86;101072.53;5022285;28;20029;-72
2022/05/11 06:44:26;;;;;;;11.38;4.82;;;;;;;16.98;58.86;101067.09;5022931;28;20028;-72
2022/05/11 06:46:51;;;;;;;11.23;4.82;;;;;;;17.16;56.84;101057.47;5021671;28;20480;-71
2022/05/11 06:49:17;;;;;;;12.53;5.03;;;;;;;17.31;56.94;101067.81;5022242;28;20025;-70
2022/05/11 06:51:42;;;;;;;10.02;4.53;;;;;;;17.48;57.17;101071.19;5022338;28;20267;-72
2022/05/11 06:59:35;;;;;;;10.98;4.47;;;;;;;17.61;52.77;101065.16;5022684;28;20400;-71
2022/05/11 07:02:06;;;;;;;12.15;4.63;;;;;;;17.69;53.30;101062.94;5022149;28;20030;-71
2022/05/11 07:04:33;;;;;;;10.60;3.97;;;;;;;17.80;53.19;101061.91;5022301;28;20300;-71
2022/05/11 07:07:00;;;;;;;11.38;4.57;;;;;;;17.91;54.22;101076.66;5022271;28;20033;-71
2022/05/11 07:09:27;;;;;;;11.38;4.13;;;;;;;17.95;51.30;101072.25;5022227;28;20117;-71
2022/05/11 07:14:38;;;;;;;13.00;4.07;;;;;;;17.80;50.45;101070.25;5019682;28;20068;-71
2022/05/11 07:17:04;;;;;;;12.70;4.05;;;;;;;17.74;50.80;101080.53;5021061;28;20383;-71
2022/05/11 07:19:29;;;;;;;13.95;3.95;;;;;;;17.82;51.90;101076.34;5021148;28;21365;-71
2022/05/11 07:21:54;;;;;;;10.23;4.00;;;;;;;17.93;52.24;101078.03;5020239;28;20025;-72
2022/05/11 07:24:20;;;;;;;11.27;3.53;;;;;;;17.96;50.51;101065.56;5019818;28;20025;-72
2022/05/11 07:26:46;;;;;;;12.73;4.47;;;;;;;17.87;51.14;101074.44;5018844;28;20076;-72
2022/05/11 07:29:12;;;;;;;12.27;4.53;;;;;;;17.91;51.88;101069.16;5021534;28;20647;-70
2022/05/11 07:31:38;;;;;;;11.43;3.80;;;;;;;18.10;52.45;101070.31;5021779;28;20017;-71
2022/05/11 07:34:04;;;;;;;14.35;4.70;;;;;;;18.15;52.15;101070.31;5020954;28;20464;-71
2022/05/11 07:36:30;;;;;;;14.20;5.35;;;;;;;18.04;51.66;101067.78;5020941;28;20104;-70
2022/05/11 07:38:55;;;;;;;12.50;5.03;;;;;;;18.02;51.82;101070.84;5021606;28;20021;-72
2022/05/11 07:41:21;;;;;;;14.93;4.65;;;;;;;17.96;51.69;101069.19;5021912;28;20049;-71
2022/05/11 07:43:46;;;;;;;15.48;5.30;;;;;;;17.94;52.49;101074.16;5021458;28;20024;-71
2022/05/11 07:46:11;;;;;;;17.52;5.90;;;;;;;17.94;52.20;101076.94;5021362;28;20423;-71
2022/05/11 07:48:37;;;;;;;13.70;5.05;;;;;;;17.97;52.76;101067.22;5020550;28;20030;-71
2022/05/11 07:51:03;;;;;;;12.70;5.40;;;;;;;18.02;53.74;101078.34;5021478;28;20018;-71
2022/05/11 07:53:28;;;;;;;15.82;5.30;;;;;;;18.11;52.62;101074.75;5020505;28;20112;-70
2022/05/11 08:01:22;;;;;;;12.93;5.95;;;;;;;18.15;51.78;101080.63;5021112;28;20079;-70
2022/05/11 08:03:48;;;;;;;16.95;5.53;;;;;;;18.23;51.45;101082.00;5021533;28;20029;-71
2022/05/11 08:06:16;;;;;;;13.60;5.57;;;;;;;18.31;52.13;101081.47;5020644;28;20493;-70
2022/05/11 08:08:41;;;;;;;;;;;;;;;18.57;51.40;101077.56;5021940;28;20369;-71
2022/05/11 08:11:06;;;;;;;14.13;4.37;;;;;;;18.75;50.33;101078.97;5036683;28;19912;-69
2022/05/11 08:13:32;;;;;;;11.97;4.40;;;;;;;18.81;49.17;101080.66;5021973;28;20033;-70
2022/05/11 08:15:57;;;;;;;14.00;5.18;;;;;;;18.95;49.53;101066.97;5025787;28;20288;-70
2022/05/11 08:18:22;;;;;;;13.02;4.18;;;;;;;19.03;48.71;101076.72;5025714;28;20020;-72
2022/05/11 08:20:48;;;;;;;12.70;4.53;;;;;;;19.01;47.72;101071.44;5024774;28;20028;-71
2022/05/11 08:23:14;;;;;;;12.40;4.25;;;;;;;19.05;48.13;101066.94;5025532;28;20771;-71
2022/05/11 08:25:41;;;;;;;14.02;4.00;;;;;;;19.11;47.23;101064.97;5025443;28;20057;-67
2022/05/11 08:28:26;;;;;;;12.47;3.60;;;;;;;19.37;48.17;101074.13;5024848;28;20497;-71
2022/05/11 08:33:39;;;;;;;11.25;3.88;;;;;;;19.54;47.35;101073.75;5024179;28;20040;-71
2022/05/11 08:36:17;;;;;;;12.88;4.13;;;;;;;19.43;45.63;101072.97;5025068;28;20026;-71
2022/05/11 08:38:45;;;;;;;10.93;4.28;;;;;;;19.42;45.98;101079.69;5025451;28;20022;-71
2022/05/11 08:41:36;;;;;;;13.95;4.15;;;;;;;19.45;46.10;101059.59;5024506;28;20443;-71
2022/05/11 08:44:07;;;;;;;8.50;3.60;;;;;;;19.99;45.80;101075.50;5025273;28;20022;-71
2022/05/11 08:46:58;;;;;;;11.00;3.80;;;;;;;20.05;45.51;101071.56;5024594;28;20025;-70
2022/05/11 08:49:56;;;;;;;12.40;4.10;;;;;;;20.06;45.44;101072.41;5005581;28;20037;-71
2022/05/11 08:52:37;;;;;;;12.48;4.60;;;;;;;20.03;46.69;101059.88;5004448;28;20152;-71
2022/05/11 08:55:48;;;;;;;15.90;5.15;;;;;;;20.25;45.45;101069.75;5004653;28;20043;-71
2022/05/11 08:58:37;;;;;;;13.20;4.88;;;;;;;20.23;45.21;101066.44;4993502;28;20046;-71
2022/05/11 09:01:05;;;;;;;8.70;4.00;;;;;;;20.56;44.97;101076.78;5005207;28;20389;-72
2022/05/11 09:03:34;;;;;;;13.90;5.32;;;;;;;20.64;44.34;101070.59;5004632;28;20034;-71
2022/05/11 09:06:05;;;;;;;14.00;4.68;;;;;;;20.41;44.46;101065.72;5005011;28;20038;-70
2022/05/11 09:08:38;;;;;;;13.15;4.72;;;;;;;20.58;44.25;101068.13;5004875;28;20022;-71
2022/05/11 09:11:05;;;;;;;14.65;4.65;;;;;;;20.66;44.13;101061.91;5005005;28;20037;-71
2022/05/11 09:13:31;;;;;;;16.17;5.80;;;;;;;20.74;44.04;101052.94;5004103;28;20030;-71
2022/05/11 09:16:01;;;;;;;18.25;5.43;;;;;;;21.12;44.98;101062.28;5004301;28;21136;-71
2022/05/11 09:18:29;;;;;;;12.50;5.15;;;;;;;21.66;42.00;101057.50;5004366;28;20088;-71
2022/05/11 09:20:55;;;;;;;13.45;5.18;;;;;;;22.96;39.56;101045.63;5004443;28;20069;-70
2022/05/11 09:23:34;;;;;;;14.63;5.55;;;;;;;24.73;38.02;101039.97;5004648;28;20056;-72
2022/05/11 09:26:14;;;;;;;16.42;5.32;;;;;;;25.97;34.41;101036.16;5003326;28;20444;-71
2022/05/11 09:28:42;;;;;;;13.07;4.68;;;;;;;26.68;32.90;101040.59;5004315;28;20033;-72
2022/05/11 09:31:12;;;;;;;15.10;4.20;;;;;;;27.53;31.38;101040.63;5003230;28;20121;-71
2022/05/11 09:33:41;;;;;;;20.50;4.90;;;;;;;28.50;30.58;101048.06;5004991;28;20037;-72
2022/05/11 09:36:08;;;;;;;15.98;5.70;;;;;;;28.26;29.80;101052.41;5004394;28;20483;-72
2022/05/11 09:38:42;;;;;;;15.18;5.60;;;;;;;28.29;30.13;101043.25;5019629;28;20098;-72
2022/05/11 09:41:22;;;;;;;14.45;5.20;;;;;;;28.64;30.54;101038.13;5024245;28;20091;-72
2022/05/11 09:43:50;;;;;;;14.00;5.38;;;;;;;28.53;29.72;101051.00;5024185;28;20058;-72
2022/05/11 09:46:29;;;;;;;19.50;6.13;;;;;;;28.27;30.58;101042.75;5023967;28;20038;-72
2022/05/11 09:49:24;;;;;;;13.07;6.28;;;;;;;28.92;30.08;101037.47;5023728;28;20080;-72
2022/05/11 09:51:55;;;;;;;15.20;5.90;;;;;;;28.76;29.46;101042.16;5023559;28;20045;-71
2022/05/11 09:54:42;;;;;;;13.25;6.30;;;;;;;29.11;29.25;101042.59;5023539;28;20408;-71
2022/05/11 09:57:08;;;;;;;19.33;7.20;;;;;;;29.08;29.08;101032.81;5023085;28;20504;-72
2022/05/11 09:59:41;;;;;;;16.83;6.60;;;;;;;29.51;28.67;101027.75;5023457;28;20029;-72
2022/05/11 10:02:32;;;;;;;13.75;6.68;;;;;;;29.87;28.73;101027.72;5021716;28;20112;-72
2022/05/11 10:05:12;;;;;;;17.05;7.05;;;;;;;30.18;27.75;101029.09;5018736;28;20082;-72
2022/05/11 10:07:45;;;;;;;15.40;5.85;;;;;;;30.22;27.39;101028.00;5020406;28;20045;-72
2022/05/11 10:10:17;;;;;;;14.25;6.40;;;;;;;30.71;27.38;101018.47;5021140;28;20032;-71
2022/05/11 10:12:44;;;;;;;17.17;6.90;;;;;;;30.70;26.05;101048.84;5005706;28;20438;-72
2022/05/11 10:24:19;;;;;;;14.35;7.28;;;;;;;30.71;27.64;101027.78;5016214;28;20109;-72
2022/05/11 10:26:56;;;;;;;14.38;7.18;;;;;;;31.14;25.99;101020.41;5019712;28;20080;-71
2022/05/11 10:29:47;;;;;;;14.77;7.47;;;;;;;31.37;26.23;101016.94;5017456;28;20024;-71
2022/05/11 10:32:29;;;;;;;12.48;6.53;;;;;;;31.43;27.00;101007.81;5019571;28;20035;-72
2022/05/11 10:35:19;;;;;;;16.48;7.18;;;;;;;31.13;25.65;101004.59;5017414;28;20372;-71
2022/05/11 10:38:06;;;;;;;16.60;6.45;;;;;;;31.32;26.69;101014.38;5019428;28;20029;-71
2022/05/11 10:40:45;;;;;;;16.40;7.07;;;;;;;31.04;26.41;101008.81;5021719;28;20477;-71
2022/05/11 10:43:13;;;;;;;20.15;7.90;;;;;;;30.45;27.07;101004.75;5017037;28;20017;-72
2022/05/11 10:45:49;;;;;;;16.48;6.88;;;;;;;30.14;27.25;100997.81;5018248;28;20792;-71
2022/05/11 10:48:36;;;;;;;19.70;8.10;;;;;;;29.44;28.14;101000.84;5021643;28;20036;-72
2022/05/11 10:51:07;;;;;;;;;;;;;;;29.23;28.76;100982.38;5021283;28;20147;-72
2022/05/11 10:53:46;;;;;;;15.55;7.72;;;;;;;28.35;30.41;100988.22;5023370;28;19917;-72
2022/05/11 10:56:28;;;;;;;20.35;7.97;;;;;;;27.16;32.17;101000.81;5020219;28;20120;-72
2022/05/11 10:59:25;;;;;;;13.68;7.40;;;;;;;26.29;33.66;100986.13;5012721;28;20025;-71
2022/05/11 11:02:22;;;;;;;15.57;7.35;;;;;;;25.76;35.03;100999.41;5023523;28;20068;-71
2022/05/11 11:05:00;;;;;;;24.05;6.88;;;;;;;25.55;36.20;100989.91;5021566;28;20040;-71
2022/05/11 11:07:44;;;;;;;13.93;6.88;;;;;;;25.65;35.85;100983.97;5020036;28;20033;-72
2022/05/11 11:10:26;;;;;;;20.00;8.23;;;;;;;25.29;35.76;100987.00;5021879;28;20033;-68
2022/05/11 11:13:29;;;;;;;18.77;8.32;;;;;;;24.81;36.95;100985.00;5015210;28;20911;-71
2022/05/11 11:15:56;;;;;;;19.10;7.15;;;;;;;24.70;36.71;100978.84;5018785;28;20099;-71
2022/05/11 11:18:33;;;;;;;19.10;8.27;;;;;;;24.70;36.72;100976.03;5018409;28;20034;-71
2022/05/11 11:21:02;;;;;;;18.10;7.50;;;;;;;24.60;36.42;100981.94;5009326;28;20747;-71
2022/05/11 11:23:33;;;;;;;15.60;7.10;;;;;;;24.43;37.17;100984.63;5016108;28;20029;-71
2022/05/11 11:26:08;;;;;;;15.15;7.38;;;;;;;24.78;37.71;100968.78;5010262;28;20499;-71
2022/05/11 11:28:39;;;;;;;19.95;7.70;;;;;;;24.83;36.42;100974.25;5013585;28;20079;-71
2022/05/11 11:31:12;;;;;;;14.55;7.30;;;;;;;25.08;36.27;100975.53;5013803;28;20629;-71
2022/05/11 11:34:00;;;;;;;23.63;7.78;;;;;;;25.00;36.05;100970.72;5021620;28;20047;-70
2022/05/11 11:36:28;;;;;;;19.38;7.07;;;;;;;24.94;36.08;100958.78;5016318;28;20428;-71
2022/05/11 11:38:59;;;;;;;13.85;6.63;;;;;;;25.01;35.49;100952.69;5018720;28;20044;-72
2022/05/11 11:41:28;;;;;;;15.57;7.15;;;;;;;24.74;36.38;100953.75;5018407;28;20421;-71
2022/05/11 11:44:24;;;;;;;14.68;5.85;;;;;;;24.75;37.47;100963.81;5017760;28;20029;-70
2022/05/11 11:46:50;;;;;;;16.15;6.22;;;;;;;25.02;36.27;100940.28;5018418;28;20100;-71
2022/05/11 11:49:18;;;;;;;18.95;6.10;;;;;;;24.88;34.88;100946.00;5024580;28;20379;-69
2022/05/11 11:51:50;;;;;;;15.90;5.35;;;;;;;24.73;35.24;100947.28;5024794;28;20038;-70
2022/05/11 11:54:47;;;;;;;17.35;5.72;;;;;;;24.77;36.50;100945.47;5024413;28;20121;-71
2022/05/11 11:57:13;;;;;;;15.65;6.38;;;;;;;24.84;36.49;100950.66;5024588;28;20029;-70
2022/05/11 11:59:44;;;;;;;16.77;6.60;;;;;;;25.00;36.01;100946.25;5026609;28;20032;-70
2022/05/11 12:02:24;;;;;;;13.98;5.25;;;;;;;25.38;35.34;100934.44;5014761;28;20109;-71
2022/05/11 12:04:59;;;;;;;14.80;4.95;;;;;;;25.26;35.48;100942.72;5015907;28;20040;-71
2022/05/11 12:16:14;;;;;;;16.00;5.60;;;;;;;25.25;33.33;100925.00;5025447;28;20076;-71